Time;durP1;ratioP1;P1;durP2;ratioP2;P2;SDS_P1;SDS_P2;PMS_P1;PMS_P2;Temp;Humidity;BMP_temperature;BMP_pressure;BME280_temperature;BME280_humidity;BME280_pressure;Samples;Min_cycle;Max_cycle;Signal;HPM_P1;HPM_P2
2021/12/10 00:00:45;;;;;;;32.78;18.25;;;;;;;2.05;96.63;99744.28;5026048;28;20381;-65
2021/12/10 00:03:30;;;;;;;31.30;19.05;;;;;;;1.94;96.54;99741.34;5012503;28;20184;-66
2021/12/10 00:06:04;;;;;;;36.28;17.85;;;;;;;2.05;95.72;99730.75;5024826;28;20025;-66
2021/12/10 00:08:33;;;;;;;33.83;18.00;;;;;;;2.02;96.51;99733.03;5023180;28;20052;-66
2021/12/10 00:11:01;;;;;;;33.85;17.90;;;;;;;2.06;96.14;99728.88;5025086;28;20114;-66
2021/12/10 00:13:26;;;;;;;;;;;;;;;2.12;96.34;99719.94;5025979;28;20041;-66
2021/12/10 00:15:55;;;;;;;30.33;17.05;;;;;;;2.16;95.41;99712.25;5024099;28;19916;-66
2021/12/10 00:18:21;;;;;;;;;;;;;;;2.21;95.44;99709.75;5025165;28;20039;-66
2021/12/10 00:20:48;;;;;;;28.85;16.45;;;;;;;2.25;95.17;99709.16;5024571;28;19909;-66
2021/12/10 00:23:18;;;;;;;25.60;13.60;;;;;;;2.44;94.24;99703.97;5023134;28;20044;-66
2021/12/10 00:25:48;;;;;;;30.85;15.70;;;;;;;2.42;94.10;99687.06;5024026;28;20025;-66
2021/12/10 00:28:21;;;;;;;27.80;15.55;;;;;;;2.46;94.13;99681.03;5024033;28;20133;-66
2021/12/10 00:31:15;;;;;;;30.92;15.48;;;;;;;2.48;93.86;99678.94;5024762;28;20061;-65
2021/12/10 00:33:46;;;;;;;25.63;14.07;;;;;;;2.56;92.72;99680.63;5025151;28;20032;-65
2021/12/10 00:36:12;;;;;;;26.63;14.48;;;;;;;2.61;92.66;99678.13;5024184;28;20087;-66
2021/12/10 00:38:38;;;;;;;26.27;14.40;;;;;;;2.60;92.70;99666.47;5024524;28;20029;-66
2021/12/10 00:41:05;;;;;;;20.70;13.25;;;;;;;2.70;92.16;99648.97;5024189;28;20030;-66
2021/12/10 00:43:31;;;;;;;29.15;14.02;;;;;;;2.64;92.27;99645.22;5024644;28;20024;-66
2021/12/10 00:45:56;;;;;;;25.40;13.38;;;;;;;2.58;92.57;99641.44;5024668;28;20033;-66
2021/12/10 00:48:22;;;;;;;25.00;13.55;;;;;;;2.63;91.66;99648.09;5024313;28;20136;-66
2021/12/10 00:50:50;;;;;;;20.63;11.73;;;;;;;2.66;91.32;99637.69;5023925;28;20126;-66
2021/12/10 00:53:17;;;;;;;21.15;11.77;;;;;;;2.68;90.83;99632.88;5023399;28;20601;-66
2021/12/10 00:55:43;;;;;;;24.13;11.15;;;;;;;2.64;91.26;99628.13;5023432;28;20117;-66
2021/12/10 00:58:09;;;;;;;23.85;11.02;;;;;;;2.65;91.14;99613.50;5023089;28;20037;-65
2021/12/10 01:00:42;;;;;;;17.42;10.23;;;;;;;2.58;91.37;99617.03;5024474;28;20057;-66
2021/12/10 01:03:11;;;;;;;20.02;11.55;;;;;;;2.46;91.58;99605.16;5024138;28;20029;-66
2021/12/10 01:05:39;;;;;;;18.45;11.18;;;;;;;2.43;91.59;99604.75;5022452;28;20037;-66
2021/12/10 01:08:05;;;;;;;22.98;11.38;;;;;;;2.36;92.03;99593.91;5022268;28;20025;-66
2021/12/10 01:10:35;;;;;;;17.20;10.35;;;;;;;2.37;91.82;99589.31;5023978;28;20424;-67
2021/12/10 01:13:05;;;;;;;20.45;11.77;;;;;;;2.30;91.66;99578.50;5024199;28;20046;-67
2021/12/10 01:23:58;;;;;;;23.35;12.13;;;;;;;2.18;91.90;99553.03;5024033;28;20098;-66
2021/12/10 01:29:09;;;;;;;22.77;11.98;;;;;;;2.03;92.32;99540.56;5023535;28;20037;-66
2021/12/10 01:31:35;;;;;;;26.23;12.10;;;;;;;1.98;92.68;99528.69;5023484;28;20439;-66
2021/12/10 01:34:01;;;;;;;20.08;12.65;;;;;;;1.91;93.05;99517.84;5023877;28;20109;-66
2021/12/10 01:36:26;;;;;;;20.23;12.38;;;;;;;1.89;93.09;99519.09;5020161;28;20506;-66
2021/12/10 01:38:53;;;;;;;28.50;13.75;;;;;;;1.86;93.55;99517.63;5024216;28;20109;-66
2021/12/10 01:41:23;;;;;;;23.55;11.77;;;;;;;1.87;92.99;99516.56;5023360;28;20095;-66
2021/12/10 01:43:52;;;;;;;25.00;13.38;;;;;;;1.82;93.11;99502.84;5023496;28;20417;-66
2021/12/10 01:46:25;;;;;;;22.77;11.85;;;;;;;1.79;93.68;99495.16;5022145;28;20062;-66
2021/12/10 01:48:55;;;;;;;26.88;12.18;;;;;;;1.78;93.33;99497.03;5023797;28;20037;-66
2021/12/10 01:51:24;;;;;;;23.63;12.95;;;;;;;1.81;93.42;99498.47;5020570;28;20040;-66
2021/12/10 01:53:52;;;;;;;24.55;12.52;;;;;;;1.78;93.68;99485.38;5023730;28;20385;-66
2021/12/10 01:56:24;;;;;;;22.05;11.07;;;;;;;1.76;93.72;99490.13;5021807;28;20017;-66
2021/12/10 01:58:51;;;;;;;24.05;11.05;;;;;;;1.77;93.12;99472.84;5019786;28;20061;-66
2021/12/10 02:01:21;;;;;;;23.00;10.98;;;;;;;1.73;93.37;99480.56;5023070;28;20067;-66
2021/12/10 02:03:47;;;;;;;23.23;9.95;;;;;;;1.79;93.22;99474.31;5023645;28;20333;-66
2021/12/10 02:06:13;;;;;;;19.90;10.40;;;;;;;1.73;93.25;99477.03;5021573;28;20024;-66
2021/12/10 02:08:39;;;;;;;19.95;11.02;;;;;;;1.70;93.56;99474.72;5022475;28;20446;-66
2021/12/10 02:11:05;;;;;;;18.48;9.98;;;;;;;1.73;93.74;99463.50;5022245;28;20117;-66
2021/12/10 02:13:31;;;;;;;18.50;9.93;;;;;;;1.69;93.93;99465.78;5024001;28;20071;-65
2021/12/10 02:15:56;;;;;;;17.55;10.07;;;;;;;1.66;93.97;99449.09;5024047;28;20040;-66
2021/12/10 02:18:22;;;;;;;15.18;9.05;;;;;;;1.68;93.93;99444.34;5022188;28;20137;-66
2021/12/10 02:20:52;;;;;;;18.65;9.20;;;;;;;1.68;93.86;99444.34;5024279;28;20447;-66
2021/12/10 02:23:17;;;;;;;20.25;8.88;;;;;;;1.67;93.83;99431.81;5021787;28;20456;-66
2021/12/10 02:25:43;;;;;;;15.98;9.05;;;;;;;1.73;93.30;99429.16;5022425;28;20121;-66
2021/12/10 02:28:10;;;;;;;15.75;8.20;;;;;;;1.75;93.15;99423.50;5023307;28;20036;-66
2021/12/10 02:30:37;;;;;;;15.63;8.52;;;;;;;1.75;93.06;99418.09;5023385;28;20061;-66
2021/12/10 02:33:03;;;;;;;16.10;8.10;;;;;;;1.76;93.02;99417.88;5023477;28;20829;-67
2021/12/10 02:35:30;;;;;;;18.50;8.73;;;;;;;1.81;92.89;99401.03;5021509;28;20028;-66
2021/12/10 02:37:56;;;;;;;17.85;8.75;;;;;;;1.72;93.22;99394.97;5022356;28;20033;-66
2021/12/10 02:40:23;;;;;;;16.08;8.25;;;;;;;1.67;93.51;99392.06;5023150;28;20061;-66
2021/12/10 02:42:51;;;;;;;15.90;9.10;;;;;;;1.69;93.13;99381.06;5026998;28;20148;-66
2021/12/10 02:45:18;;;;;;;17.83;9.13;;;;;;;1.71;93.15;99378.97;5025201;28;20021;-66
2021/12/10 02:47:45;;;;;;;17.05;7.95;;;;;;;1.69;93.65;99381.06;5026799;28;20097;-66
2021/12/10 02:50:14;;;;;;;22.02;8.65;;;;;;;1.71;93.35;99368.97;5025550;28;20037;-66
2021/12/10 02:52:39;;;;;;;17.88;8.50;;;;;;;1.77;92.79;99367.28;5025472;28;20217;-66
2021/12/10 02:55:10;;;;;;;16.67;7.60;;;;;;;1.75;92.77;99364.78;5025099;28;20341;-66
2021/12/10 02:57:37;;;;;;;16.23;8.57;;;;;;;1.76;92.92;99365.63;5026408;28;20040;-66
2021/12/10 03:00:10;;;;;;;17.40;7.95;;;;;;;1.79;92.97;99365.22;5026336;28;20045;-67
2021/12/10 03:02:36;;;;;;;16.67;8.10;;;;;;;1.82;92.22;99353.94;5024855;28;20400;-66
2021/12/10 03:05:03;;;;;;;13.90;7.70;;;;;;;1.82;92.53;99348.53;5040631;23;20049;-67
2021/12/10 03:07:30;;;;;;;20.80;7.20;;;;;;;1.78;92.54;99334.63;5044916;28;20723;-66
2021/12/10 03:09:55;;;;;;;16.95;7.47;;;;;;;1.83;92.47;99342.09;5045256;28;20063;-66
2021/12/10 03:12:22;;;;;;;18.23;6.90;;;;;;;1.82;92.36;99332.28;5043824;28;20428;-66
2021/12/10 03:14:51;;;;;;;14.23;6.30;;;;;;;1.81;91.93;99331.47;5045965;28;20157;-66
2021/12/10 03:17:23;;;;;;;14.57;6.50;;;;;;;1.82;92.10;99337.72;5030664;28;20376;-66
2021/12/10 03:19:50;;;;;;;12.35;6.47;;;;;;;1.82;92.08;99329.59;5043442;28;20017;-66
2021/12/10 03:22:16;;;;;;;16.15;5.65;;;;;;;1.85;92.05;99325.66;5038509;28;20039;-66
2021/12/10 03:24:42;;;;;;;12.02;5.90;;;;;;;1.91;91.54;99314.78;5028102;28;20030;-66
2021/12/10 03:27:10;;;;;;;12.60;5.50;;;;;;;1.91;91.23;99314.78;5042974;28;20036;-66
2021/12/10 03:29:39;;;;;;;10.68;5.85;;;;;;;1.89;91.38;99306.06;5033957;28;20025;-66
2021/12/10 03:32:09;;;;;;;15.52;5.38;;;;;;;1.89;91.16;99300.66;5027094;28;20100;-66
2021/12/10 03:34:35;;;;;;;15.52;5.95;;;;;;;1.87;91.37;99296.47;5035571;28;20051;-66
2021/12/10 03:37:01;;;;;;;12.30;5.63;;;;;;;1.85;91.60;99287.75;5044946;28;20809;-66
2021/12/10 03:39:27;;;;;;;15.15;5.90;;;;;;;1.87;91.32;99286.47;5026837;28;20049;-66
2021/12/10 03:41:56;;;;;;;15.57;6.50;;;;;;;1.87;91.04;99281.06;5037779;28;20029;-66
2021/12/10 03:44:21;;;;;;;14.93;6.07;;;;;;;1.89;90.99;99278.16;5033839;28;20697;-66
2021/12/10 03:46:47;;;;;;;16.45;5.95;;;;;;;1.91;90.87;99268.75;5045491;28;20032;-66
2021/12/10 03:49:13;;;;;;;12.55;5.45;;;;;;;1.94;90.79;99271.06;5038313;28;20120;-66
2021/12/10 03:51:38;;;;;;;14.10;6.22;;;;;;;1.97;90.62;99270.63;5024698;28;20456;-66
2021/12/10 03:54:05;;;;;;;11.77;5.63;;;;;;;2.03;90.00;99269.78;5029377;28;20025;-67
2021/12/10 03:56:32;;;;;;;10.80;5.85;;;;;;;2.06;89.59;99250.38;5044773;28;20035;-66
2021/12/10 03:59:02;;;;;;;13.18;6.07;;;;;;;2.11;89.46;99257.88;5032193;28;20113;-66
2021/12/10 04:01:30;;;;;;;10.38;5.20;;;;;;;2.13;89.55;99257.63;5030947;28;20021;-66
2021/12/10 04:03:58;;;;;;;12.35;5.70;;;;;;;2.19;88.49;99249.50;5029680;28;20483;-66
2021/12/10 04:06:24;;;;;;;14.27;6.97;;;;;;;2.20;88.62;99242.22;5043255;28;20422;-66
2021/12/10 04:08:50;;;;;;;17.85;7.70;;;;;;;2.28;88.24;99244.66;5037294;28;20017;-66
2021/12/10 04:11:16;;;;;;;14.13;5.93;;;;;;;2.25;88.53;99245.09;5044934;28;20044;-66
2021/12/10 04:13:45;;;;;;;11.32;5.70;;;;;;;2.28;88.45;99241.94;5043437;28;20361;-66
2021/12/10 04:16:10;;;;;;;;;;;;;;;2.34;88.69;99232.97;5038774;28;20029;-66
2021/12/10 04:18:37;;;;;;;10.88;5.60;;;;;;;2.35;87.57;99218.38;5034113;28;19935;-66
2021/12/10 04:21:05;;;;;;;10.35;5.05;;;;;;;2.32;88.48;99218.78;5024682;28;20104;-67
2021/12/10 04:23:31;;;;;;;12.85;6.43;;;;;;;2.30;88.05;99221.72;5044324;28;20021;-66
2021/12/10 04:25:57;;;;;;;11.95;5.45;;;;;;;2.32;88.47;99225.03;5028103;28;20044;-66
2021/12/10 04:28:23;;;;;;;12.07;5.43;;;;;;;2.33;88.42;99207.75;5031133;28;20562;-66
2021/12/10 04:30:49;;;;;;;12.80;5.55;;;;;;;2.33;88.74;99198.78;5031036;28;20108;-66
2021/12/10 04:33:17;;;;;;;14.55;5.75;;;;;;;2.29;88.96;99193.00;5040229;28;20055;-66
2021/12/10 04:35:48;;;;;;;11.90;5.30;;;;;;;2.28;89.04;99187.75;5032292;28;20654;-66
2021/12/10 04:38:16;;;;;;;15.55;4.72;;;;;;;2.34;88.66;99184.22;5036614;28;20037;-66
2021/12/10 04:40:41;;;;;;;12.80;5.30;;;;;;;2.35;88.29;99180.44;5031448;28;20028;-66
2021/12/10 04:43:07;;;;;;;14.50;5.30;;;;;;;2.30;88.44;99177.56;5027208;28;20387;-66
2021/12/10 04:45:33;;;;;;;11.13;4.75;;;;;;;2.26;88.37;99170.91;5044545;28;20120;-67
2021/12/10 04:47:58;;;;;;;14.30;6.90;;;;;;;2.21;89.05;99168.03;5039799;28;20120;-66
2021/12/10 04:50:27;;;;;;;11.35;4.65;;;;;;;2.25;88.67;99158.44;5026693;28;20029;-66
2021/12/10 04:52:54;;;;;;;11.15;4.88;;;;;;;2.19;88.86;99148.47;5037032;28;20028;-66
2021/12/10 04:55:20;;;;;;;9.43;5.28;;;;;;;2.14;89.48;99145.59;5036724;28;20036;-66
2021/12/10 04:57:46;;;;;;;12.18;5.18;;;;;;;2.12;89.39;99136.81;5029958;28;20036;-66
2021/12/10 05:00:16;;;;;;;13.80;5.72;;;;;;;2.17;88.67;99128.88;5034516;28;20032;-66
2021/12/10 05:02:44;;;;;;;15.30;5.32;;;;;;;2.14;89.36;99123.91;5040131;28;20033;-66
2021/12/10 05:05:09;;;;;;;11.27;4.45;;;;;;;2.17;88.81;99126.16;5033632;28;20114;-65
2021/12/10 05:07:37;;;;;;;13.45;5.00;;;;;;;2.14;89.41;99119.34;5036163;28;20478;-66
2021/12/10 05:10:08;;;;;;;13.88;4.53;;;;;;;2.20;89.24;99112.19;5038708;28;20017;-66
2021/12/10 05:12:34;;;;;;;10.63;4.22;;;;;;;2.22;88.94;99101.97;5035556;28;20053;-66
2021/12/10 05:15:01;;;;;;;9.48;3.97;;;;;;;2.30;88.17;99104.41;5037179;28;20017;-65
2021/12/10 05:17:30;;;;;;;11.43;4.28;;;;;;;2.25;88.68;99105.09;5033080;28;20025;-66
2021/12/10 05:19:55;;;;;;;10.00;4.15;;;;;;;2.27;88.41;99096.72;5042783;28;20115;-66
2021/12/10 05:22:21;;;;;;;12.70;3.80;;;;;;;2.26;88.87;99106.72;5029999;28;20108;-66
2021/12/10 05:24:46;;;;;;;14.25;4.18;;;;;;;2.31;87.85;99103.38;5026177;28;20029;-66
2021/12/10 05:27:12;;;;;;;8.65;3.75;;;;;;;2.31;88.38;99108.78;5033508;28;20025;-66
2021/12/10 05:29:37;;;;;;;13.13;3.83;;;;;;;2.33;88.04;99099.41;5042936;28;20037;-66
2021/12/10 05:32:05;;;;;;;9.55;3.80;;;;;;;2.30;87.84;99099.00;5042340;28;20040;-67
2021/12/10 05:34:30;;;;;;;9.43;3.35;;;;;;;2.35;87.84;99096.47;5039661;28;20078;-66
2021/12/10 05:36:57;;;;;;;11.93;4.30;;;;;;;2.36;88.10;99090.00;5041190;28;20029;-66
2021/12/10 05:39:23;;;;;;;12.07;4.15;;;;;;;2.38;87.92;99081.63;5024236;28;20040;-66
2021/12/10 05:41:50;;;;;;;9.20;4.10;;;;;;;2.41;87.87;99082.03;5026239;28;20030;-66
2021/12/10 05:44:15;;;;;;;12.70;3.55;;;;;;;2.36;88.89;99076.44;5026804;28;20083;-66
2021/12/10 05:46:41;;;;;;;9.35;3.33;;;;;;;2.34;88.88;99081.25;5023072;28;20433;-66
2021/12/10 05:49:07;;;;;;;10.30;3.42;;;;;;;2.38;88.36;99076.22;5030967;28;20107;-66
2021/12/10 05:51:33;;;;;;;10.65;3.65;;;;;;;2.34;89.18;99075.84;5036779;28;20043;-66
2021/12/10 05:53:58;;;;;;;10.50;3.42;;;;;;;2.39;88.36;99067.88;5041970;28;20029;-66
2021/12/10 05:56:23;;;;;;;10.80;3.85;;;;;;;2.48;87.90;99076.53;5028176;28;20036;-65
2021/12/10 05:58:49;;;;;;;12.68;3.13;;;;;;;2.50;87.81;99074.47;5029828;28;20021;-66
2021/12/10 06:01:17;;;;;;;6.85;2.85;;;;;;;2.44;88.10;99070.75;5042700;28;20399;-65
2021/12/10 06:03:51;;;;;;;12.82;3.33;;;;;;;2.53;87.38;99071.28;5040668;28;20057;-66
2021/12/10 06:06:17;;;;;;;12.25;3.35;;;;;;;2.47;88.38;99064.88;5036430;28;20029;-66
2021/12/10 06:08:42;;;;;;;13.02;3.20;;;;;;;2.50;87.79;99063.63;5042140;28;20033;-66
2021/12/10 06:11:08;;;;;;;10.57;2.88;;;;;;;2.55;87.09;99067.31;5035281;28;20120;-66
2021/12/10 06:13:33;;;;;;;10.40;4.28;;;;;;;2.54;87.47;99059.41;5031523;28;20056;-66
2021/12/10 06:15:59;;;;;;;10.88;3.40;;;;;;;2.55;87.35;99059.19;5046310;28;20025;-66
2021/12/10 06:18:24;;;;;;;10.65;3.63;;;;;;;2.54;87.58;99060.25;5047620;28;20021;-65
2021/12/10 06:20:52;;;;;;;9.52;3.10;;;;;;;2.54;87.88;99054.84;5036638;28;20090;-66
2021/12/10 06:23:17;;;;;;;8.45;2.70;;;;;;;2.60;87.25;99055.81;5028847;28;20079;-66
2021/12/10 06:25:43;;;;;;;8.63;2.97;;;;;;;2.58;87.27;99053.31;5027579;28;20060;-66
2021/12/10 06:28:09;;;;;;;8.23;2.65;;;;;;;2.57;87.48;99048.94;5028587;28;21542;-66
2021/12/10 06:30:39;;;;;;;10.93;3.00;;;;;;;2.60;87.15;99047.69;5035821;28;20060;-66
2021/12/10 06:33:08;;;;;;;9.48;3.35;;;;;;;2.55;87.42;99045.66;5046368;28;20021;-66
2021/12/10 06:35:35;;;;;;;10.50;3.55;;;;;;;2.49;87.44;99046.53;5029261;28;20032;-66
2021/12/10 06:38:00;;;;;;;10.48;2.50;;;;;;;2.50;87.37;99041.94;5047536;28;20483;-66
2021/12/10 06:40:29;;;;;;;8.20;2.83;;;;;;;2.43;87.97;99041.97;5030515;28;20207;-65
2021/12/10 06:42:55;;;;;;;12.23;3.38;;;;;;;2.40;87.89;99053.28;5029930;28;20033;-65
2021/12/10 06:45:26;;;;;;;11.48;3.13;;;;;;;2.38;87.91;99049.94;5043223;28;20033;-65
2021/12/10 06:47:55;;;;;;;6.75;2.85;;;;;;;2.34;88.75;99037.94;5047599;28;20151;-65
2021/12/10 06:50:23;;;;;;;10.63;2.78;;;;;;;2.40;87.41;99052.47;5044957;28;20394;-66
2021/12/10 06:52:49;;;;;;;9.30;3.13;;;;;;;2.37;88.03;99048.28;5046119;28;20013;-66
2021/12/10 06:55:15;;;;;;;7.45;2.70;;;;;;;2.38;88.19;99054.53;5036237;28;20069;-66
2021/12/10 06:57:41;;;;;;;9.73;2.83;;;;;;;2.37;88.18;99053.72;5028504;28;20017;-66
2021/12/10 07:00:10;;;;;;;14.30;3.53;;;;;;;2.37;87.98;99051.00;5044258;28;20035;-66
2021/12/10 07:02:35;;;;;;;12.50;3.63;;;;;;;2.39;88.56;99050.81;5032967;28;20017;-66
2021/12/10 07:05:00;;;;;;;10.80;3.50;;;;;;;2.41;88.37;99054.94;5027040;28;20047;-66
2021/12/10 07:07:26;;;;;;;7.90;3.28;;;;;;;2.43;88.29;99052.00;5032460;28;20056;-66
2021/12/10 07:09:51;;;;;;;12.40;3.80;;;;;;;2.41;88.54;99052.22;5040487;28;20400;-66
2021/12/10 07:12:18;;;;;;;11.57;2.90;;;;;;;2.46;88.71;99046.16;5031301;28;20049;-66
2021/12/10 07:14:44;;;;;;;17.30;5.00;;;;;;;2.46;88.81;99057.81;5034847;28;20108;-66
2021/12/10 07:17:10;;;;;;;16.63;8.88;;;;;;;2.48;88.38;99049.44;5045625;28;20041;-66
2021/12/10 07:19:36;;;;;;;14.00;7.40;;;;;;;2.48;88.15;99050.28;5046549;28;20021;-66
2021/12/10 07:22:02;;;;;;;12.77;5.85;;;;;;;2.49;88.35;99056.56;5040354;28;20033;-67
2021/12/10 07:24:27;;;;;;;8.85;3.90;;;;;;;2.47;88.86;99045.91;5045991;28;20387;-66
2021/12/10 07:26:53;;;;;;;12.23;3.22;;;;;;;2.52;88.09;99046.06;5043666;28;20032;-66
2021/12/10 07:29:18;;;;;;;10.52;3.22;;;;;;;2.48;88.54;99049.44;5034326;28;20025;-66
2021/12/10 07:31:45;;;;;;;11.05;3.28;;;;;;;2.49;88.83;99051.97;5041943;28;20029;-65
2021/12/10 07:34:11;;;;;;;10.65;3.05;;;;;;;2.46;89.25;99052.38;5045079;28;20071;-65
2021/12/10 07:36:38;;;;;;;11.38;3.80;;;;;;;2.43;89.15;99044.69;5036886;28;20486;-66
2021/12/10 07:39:04;;;;;;;13.73;3.40;;;;;;;2.43;89.52;99050.13;5045909;28;20031;-67
2021/12/10 07:41:30;;;;;;;10.88;3.28;;;;;;;2.42;89.00;99039.50;5029742;28;20039;-65
2021/12/10 07:43:56;;;;;;;12.85;3.50;;;;;;;2.44;88.71;99043.66;5042919;28;20028;-65
2021/12/10 07:46:24;;;;;;;12.20;3.40;;;;;;;2.47;88.79;99042.38;5032321;28;20556;-65
2021/12/10 07:48:49;;;;;;;12.10;3.28;;;;;;;2.50;88.41;99047.38;5043985;28;20029;-66
2021/12/10 07:51:21;;;;;;;12.40;4.00;;;;;;;2.50;88.73;99047.38;5043119;28;20032;-65
2021/12/10 07:53:47;;;;;;;13.68;3.63;;;;;;;2.54;87.91;99045.88;5039722;28;20403;-66
2021/12/10 07:56:14;;;;;;;12.07;3.85;;;;;;;2.55;88.18;99042.09;5035949;28;20044;-65
2021/12/10 07:58:42;;;;;;;14.60;3.80;;;;;;;2.59;88.45;99052.28;5045849;28;20025;-66
2021/12/10 08:01:09;;;;;;;;;;;;;;;2.64;88.60;99053.50;5030803;28;20057;-66
2021/12/10 08:03:35;;;;;;;17.37;4.23;;;;;;;2.66;87.93;99060.34;5030412;28;20466;-66
2021/12/10 08:06:00;;;;;;;9.40;3.60;;;;;;;2.70;87.50;99064.25;5035499;28;20049;-65
2021/12/10 08:08:25;;;;;;;11.48;4.15;;;;;;;2.73;87.15;99066.50;5026579;28;20034;-65
2021/12/10 08:10:53;;;;;;;15.05;4.53;;;;;;;2.76;87.09;99059.81;5028402;28;20064;-65
2021/12/10 08:13:22;;;;;;;11.30;3.93;;;;;;;2.79;86.97;99053.97;5040061;28;20021;-65
2021/12/10 08:15:48;;;;;;;13.05;3.95;;;;;;;2.82;86.86;99056.22;5037692;28;20036;-65
2021/12/10 08:18:14;;;;;;;12.75;4.00;;;;;;;2.86;86.81;99057.44;5044534;28;20114;-65
2021/12/10 08:20:39;;;;;;;12.80;4.18;;;;;;;2.93;86.59;99062.78;5044858;28;20044;-65
2021/12/10 08:23:05;;;;;;;14.05;4.60;;;;;;;2.94;86.48;99056.28;5041400;28;20024;-65
2021/12/10 08:25:31;;;;;;;12.45;3.90;;;;;;;2.98;86.12;99058.31;5039501;28;20024;-65
2021/12/10 08:27:57;;;;;;;11.55;4.07;;;;;;;3.03;85.70;99058.47;5041336;28;20036;-65
2021/12/10 08:30:25;;;;;;;8.10;4.32;;;;;;;3.03;85.54;99058.47;5037426;28;20146;-65
2021/12/10 08:32:54;;;;;;;12.35;4.70;;;;;;;3.05;85.26;99061.00;5039877;28;20280;-65
2021/12/10 08:35:23;;;;;;;11.02;4.15;;;;;;;3.03;85.60;99061.19;5040363;28;20025;-65
2021/12/10 08:37:50;;;;;;;13.25;4.57;;;;;;;3.04;85.86;99068.31;5043587;28;20032;-65
2021/12/10 08:40:23;;;;;;;13.10;4.45;;;;;;;3.05;85.53;99066.41;5036980;28;20025;-66
2021/12/10 08:42:50;;;;;;;13.75;4.57;;;;;;;3.05;85.46;99056.38;5043078;28;20027;-66
2021/12/10 08:45:15;;;;;;;16.20;5.18;;;;;;;3.10;84.51;99061.97;5044663;28;20091;-66
2021/12/10 08:47:41;;;;;;;12.13;4.70;;;;;;;3.10;85.02;99067.38;5043090;28;20025;-65
2021/12/10 08:50:08;;;;;;;11.90;4.80;;;;;;;3.12;84.37;99062.56;5043740;28;20108;-66
2021/12/10 08:52:34;;;;;;;16.67;6.25;;;;;;;3.12;85.19;99067.16;5045024;28;20444;-65
2021/12/10 08:54:59;;;;;;;12.55;5.57;;;;;;;3.17;84.50;99061.06;5044857;28;20392;-65
2021/12/10 08:57:26;;;;;;;13.15;5.65;;;;;;;3.17;84.58;99070.03;5038389;28;20022;-65
2021/12/10 08:59:52;;;;;;;15.35;6.45;;;;;;;3.20;84.74;99066.88;5042725;28;20049;-65
2021/12/10 09:02:18;;;;;;;14.90;5.88;;;;;;;3.23;85.09;99073.72;5028458;28;20079;-65
2021/12/10 09:04:44;;;;;;;13.20;6.45;;;;;;;3.23;85.15;99063.69;5031730;28;20672;-65
2021/12/10 09:07:13;;;;;;;15.02;6.10;;;;;;;3.23;85.40;99077.25;5030887;28;20032;-65
2021/12/10 09:09:41;;;;;;;13.77;5.88;;;;;;;3.29;85.47;99073.63;5033037;28;20099;-65
2021/12/10 09:12:12;;;;;;;16.30;7.10;;;;;;;3.33;85.80;99074.00;5032458;28;20086;-65
2021/12/10 09:14:43;;;;;;;13.30;6.45;;;;;;;3.35;85.77;99080.88;5031565;28;20032;-65
2021/12/10 09:17:10;;;;;;;14.20;6.57;;;;;;;3.40;85.06;99080.19;5025809;28;20596;-65
2021/12/10 09:19:38;;;;;;;15.80;6.72;;;;;;;3.43;84.80;99078.91;5034358;28;20032;-65
2021/12/10 09:22:05;;;;;;;15.82;6.47;;;;;;;3.47;84.37;99078.22;5033046;28;20107;-65
2021/12/10 09:24:30;;;;;;;13.70;6.85;;;;;;;3.50;84.04;99080.50;5028034;28;20577;-65
2021/12/10 09:26:58;;;;;;;16.88;6.80;;;;;;;3.52;84.20;99080.25;5037156;28;20040;-65
2021/12/10 09:29:26;;;;;;;15.38;6.32;;;;;;;3.56;84.39;99074.13;5029692;28;20033;-65
2021/12/10 09:31:52;;;;;;;13.55;6.05;;;;;;;3.63;83.46;99084.91;5040487;28;20033;-65
2021/12/10 09:34:18;;;;;;;15.75;6.18;;;;;;;3.69;83.97;99083.16;5040878;28;20036;-65
2021/12/10 09:36:45;;;;;;;13.60;6.40;;;;;;;3.70;83.30;99085.66;5029248;28;20068;-65
2021/12/10 09:39:12;;;;;;;14.15;6.30;;;;;;;3.74;82.38;99089.53;5032711;28;20099;-65
2021/12/10 09:41:38;;;;;;;13.70;6.30;;;;;;;3.77;82.65;99086.38;5041110;28;20495;-65
2021/12/10 09:44:05;;;;;;;15.23;6.13;;;;;;;3.76;83.75;99092.06;5034568;28;20044;-65
2021/12/10 09:46:30;;;;;;;15.70;6.43;;;;;;;3.82;82.42;99085.69;5036732;28;20017;-65
2021/12/10 09:48:56;;;;;;;14.52;6.20;;;;;;;3.79;82.26;99083.44;5035075;28;20037;-65
2021/12/10 09:51:33;;;;;;;15.95;6.47;;;;;;;3.83;82.71;99090.06;5044258;28;20399;-65
2021/12/10 09:54:03;;;;;;;11.85;6.28;;;;;;;3.83;82.86;99084.63;5045286;28;20379;-65
2021/12/10 09:56:28;;;;;;;17.40;7.57;;;;;;;3.83;82.35;99088.19;5044624;28;20056;-66
2021/12/10 09:58:56;;;;;;;15.30;6.07;;;;;;;3.87;81.72;99083.13;5041722;28;20026;-65
2021/12/10 10:01:34;;;;;;;13.93;6.85;;;;;;;3.91;82.39;99081.59;5045327;28;20033;-66
2021/12/10 10:04:02;;;;;;;13.35;5.97;;;;;;;3.93;82.42;99082.19;5046486;28;20049;-65
2021/12/10 10:06:30;;;;;;;13.55;6.65;;;;;;;4.01;81.71;99086.47;5044474;28;20037;-65
2021/12/10 10:08:56;;;;;;;14.80;5.93;;;;;;;4.04;82.01;99081.41;5041631;28;20041;-65
2021/12/10 10:11:29;;;;;;;14.85;5.82;;;;;;;4.03;81.17;99085.19;5036921;28;20037;-66
2021/12/10 10:13:56;;;;;;;15.60;5.93;;;;;;;4.02;82.10;99088.97;5038165;28;20953;-65
2021/12/10 10:16:25;;;;;;;14.40;6.07;;;;;;;4.06;81.83;99089.34;5043123;28;20120;-66
2021/12/10 10:18:51;;;;;;;14.75;5.75;;;;;;;4.02;81.86;99091.69;5044085;28;20099;-66
2021/12/10 10:21:26;;;;;;;10.68;5.47;;;;;;;4.02;81.54;99094.38;5035863;28;20117;-65
2021/12/10 10:23:51;;;;;;;13.80;5.68;;;;;;;4.05;82.14;99093.09;5035891;28;20483;-66
2021/12/10 10:26:25;;;;;;;16.35;5.38;;;;;;;4.08;81.99;99084.50;5047174;28;20032;-66
2021/12/10 10:28:52;;;;;;;11.88;6.20;;;;;;;4.11;81.07;99093.00;5034057;28;20080;-65
2021/12/10 10:31:21;;;;;;;11.15;5.28;;;;;;;4.04;81.49;99086.00;5039930;28;20435;-65
2021/12/10 10:33:50;;;;;;;12.25;5.80;;;;;;;4.05;81.37;99090.38;5045951;28;20379;-66
2021/12/10 10:36:19;;;;;;;16.75;7.05;;;;;;;4.04;81.34;99094.16;5044111;28;20033;-65
2021/12/10 10:38:57;;;;;;;13.20;5.07;;;;;;;4.04;81.34;99088.72;5045262;28;20104;-66
2021/12/10 10:41:27;;;;;;;14.88;6.00;;;;;;;4.05;82.54;99093.91;5043017;28;20041;-65
2021/12/10 10:43:52;;;;;;;14.00;5.85;;;;;;;4.09;81.81;99086.97;5042759;28;20124;-66
2021/12/10 10:46:18;;;;;;;13.80;5.80;;;;;;;4.11;81.87;99082.16;5044422;28;20116;-65
2021/12/10 10:48:47;;;;;;;12.95;5.20;;;;;;;4.14;81.30;99092.53;5041584;28;20029;-65
2021/12/10 10:51:17;;;;;;;14.10;5.68;;;;;;;4.19;80.88;99093.72;5036498;28;20033;-65
2021/12/10 10:53:46;;;;;;;12.00;5.70;;;;;;;4.20;81.33;99095.38;5042156;28;20087;-65
2021/12/10 10:56:15;;;;;;;11.15;4.80;;;;;;;4.21;81.82;99088.88;5039812;28;20036;-65
2021/12/10 10:58:55;;;;;;;13.23;6.68;;;;;;;4.22;81.09;99087.84;5045807;28;20025;-65
2021/12/10 11:01:26;;;;;;;12.48;5.28;;;;;;;4.22;80.91;99094.09;5034871;28;20025;-65
2021/12/10 11:03:59;;;;;;;15.95;5.50;;;;;;;4.22;81.82;99087.84;5045960;28;20044;-65
2021/12/10 11:06:31;;;;;;;9.77;4.63;;;;;;;4.24;81.80;99107.44;5043721;28;20029;-66
2021/12/10 11:09:20;;;;;;;13.20;4.72;;;;;;;4.25;81.16;99090.91;5036371;28;20108;-65
2021/12/10 11:12:07;;;;;;;12.45;4.75;;;;;;;4.23;80.88;99092.22;5033345;28;20480;-65
2021/12/10 11:14:42;;;;;;;14.23;5.03;;;;;;;4.21;81.28;99102.47;5045511;28;20036;-66
2021/12/10 11:17:18;;;;;;;15.10;5.13;;;;;;;4.22;81.78;99099.53;5042305;28;20483;-65
2021/12/10 11:20:12;;;;;;;13.77;4.80;;;;;;;4.29;81.80;99100.25;5026046;28;20120;-66
2021/12/10 11:22:50;;;;;;;12.45;4.65;;;;;;;4.24;81.47;99097.41;5026194;28;20435;-66
2021/12/10 11:25:20;;;;;;;13.07;5.03;;;;;;;4.22;80.90;99104.16;5024550;28;20480;-65
2021/12/10 11:27:47;;;;;;;11.52;4.35;;;;;;;4.21;80.26;99097.88;5036182;28;20059;-65
2021/12/10 11:30:14;;;;;;;17.80;4.90;;;;;;;4.20;81.07;99101.63;5037343;28;20076;-66
2021/12/10 11:32:49;;;;;;;13.85;5.13;;;;;;;4.27;81.06;99096.13;5041635;28;20045;-66
2021/12/10 11:35:31;;;;;;;10.10;4.72;;;;;;;4.31;80.89;99109.00;5042073;28;20600;-66
2021/12/10 11:38:16;;;;;;;13.30;4.75;;;;;;;4.36;80.50;99100.16;5039675;28;20128;-66
2021/12/10 11:40:42;;;;;;;14.50;4.57;;;;;;;4.35;81.05;99102.03;5045074;28;20109;-66
2021/12/10 11:43:19;;;;;;;16.00;5.07;;;;;;;4.36;80.27;99111.03;5045791;28;20491;-66
2021/12/10 11:46:05;;;;;;;11.88;4.53;;;;;;;4.37;79.44;99107.25;5043751;28;20105;-66
2021/12/10 11:48:34;;;;;;;12.68;4.50;;;;;;;4.33;80.48;99116.94;5035409;28;20025;-66